createdAt,value
2019-04-27T00:02:07.976Z,63.27
2019-04-27T00:04:59.741Z,63.63
2019-04-27T00:07:39.129Z,63.80
2019-04-27T00:10:20.530Z,64.20
2019-04-27T00:12:57.332Z,64.34
2019-04-27T00:15:50.795Z,64.56
2019-04-27T00:18:43.361Z,64.81
2019-04-27T00:21:43.033Z,64.90
2019-04-27T00:24:19.652Z,64.86
2019-04-27T00:26:54.062Z,64.79
2019-04-27T00:29:27.204Z,64.48
2019-04-27T00:32:00.110Z,64.58
2019-04-27T00:34:33.999Z,64.66
2019-04-27T00:37:36.822Z,64.49
2019-04-27T00:40:15.881Z,64.47
2019-04-27T00:42:48.778Z,64.62
2019-04-27T00:45:23.407Z,64.42
2019-04-27T00:47:59.726Z,64.43
2019-04-27T00:50:31.184Z,64.09
2019-04-27T00:53:04.088Z,63.97
2019-04-27T00:55:39.234Z,63.92
2019-04-27T00:58:23.598Z,63.84
2019-04-27T01:01:24.258Z,63.70
2019-04-27T01:04:07.402Z,63.85
2019-04-27T01:06:40.336Z,63.78
2019-04-27T01:09:14.789Z,63.66
2019-04-27T01:11:47.639Z,63.77
2019-04-27T01:14:20.644Z,63.95
2019-04-27T01:16:53.467Z,63.89
2019-04-27T01:19:26.415Z,63.78
2019-04-27T01:21:59.324Z,63.83
2019-04-27T01:24:32.179Z,63.63
2019-04-27T01:27:26.522Z,63.60
2019-04-27T01:30:00.902Z,63.45
2019-04-27T01:32:35.412Z,63.42
2019-04-27T01:35:08.755Z,63.39
2019-04-27T01:37:42.662Z,63.22
2019-04-27T01:40:16.543Z,63.23
2019-04-27T01:42:49.393Z,63.08
2019-04-27T01:45:22.276Z,63.14
2019-04-27T01:47:55.140Z,63.32
2019-04-27T01:50:29.020Z,63.47
2019-04-27T01:53:02.255Z,63.47
2019-04-27T01:55:35.209Z,63.75
2019-04-27T01:58:10.690Z,63.96
2019-04-27T02:01:01.644Z,63.98
2019-04-27T02:03:42.950Z,63.78
2019-04-27T02:06:15.953Z,63.87
2019-04-27T02:08:49.336Z,63.82
2019-04-27T02:11:22.333Z,63.81
2019-04-27T02:13:55.164Z,64.03
2019-04-27T02:16:29.009Z,64.18
2019-04-27T02:19:02.711Z,64.26
2019-04-27T02:21:35.650Z,64.30
2019-04-27T02:24:11.276Z,64.34
2019-04-27T02:26:44.425Z,64.41
2019-04-27T02:29:39.079Z,64.39
2019-04-27T02:32:24.731Z,64.38
2019-04-27T02:35:00.348Z,64.18
2019-04-27T02:37:34.458Z,64.06
2019-04-27T02:40:39.773Z,64.11
2019-04-27T02:43:15.167Z,64.26
2019-04-27T02:45:50.324Z,64.42
2019-04-27T02:48:23.615Z,64.57
2019-04-27T02:51:00.052Z,64.68
2019-04-27T02:53:50.565Z,64.84
2019-04-27T02:56:23.493Z,64.90
2019-04-27T02:58:56.291Z,64.87
2019-04-27T03:01:31.906Z,64.75
2019-04-27T03:04:04.865Z,64.78
2019-04-27T03:06:39.768Z,64.72
2019-04-27T03:09:12.350Z,64.78
2019-04-27T03:11:45.217Z,64.85
2019-04-27T03:14:36.578Z,64.66
2019-04-27T03:17:36.424Z,64.53
2019-04-27T03:20:15.347Z,64.26
2019-04-27T03:22:51.423Z,64.02
2019-04-27T03:25:40.354Z,64.00
2019-04-27T03:28:15.261Z,63.74
2019-04-27T03:30:51.588Z,63.58
2019-04-27T03:33:23.107Z,63.64
2019-04-27T03:35:56.132Z,63.67
2019-04-27T03:38:30.131Z,63.89
2019-04-27T03:41:03.360Z,63.94
2019-04-27T03:43:36.214Z,64.03
2019-04-27T03:46:10.349Z,63.94
2019-04-27T03:48:43.495Z,63.98
2019-04-27T03:51:25.345Z,63.91
2019-04-27T03:54:21.490Z,63.91
2019-04-27T03:56:55.374Z,63.78
2019-04-27T03:59:33.893Z,63.78
2019-04-27T04:02:09.626Z,64.01
2019-04-27T04:04:41.401Z,63.86
2019-04-27T04:07:19.719Z,63.99
2019-04-27T04:09:53.023Z,63.90
2019-04-27T04:12:43.738Z,63.80
2019-04-27T04:15:25.470Z,63.92
2019-04-27T04:17:59.499Z,64.02
2019-04-27T04:20:33.019Z,63.92
2019-04-27T04:23:05.903Z,63.99
2019-04-27T04:25:40.874Z,64.08
2019-04-27T04:28:13.484Z,63.89
2019-04-27T04:30:46.530Z,63.91
2019-04-27T04:33:20.911Z,63.82
2019-04-27T04:35:53.784Z,63.76
2019-04-27T04:38:26.593Z,63.74
2019-04-27T04:41:03.706Z,63.78
2019-04-27T04:43:46.398Z,63.84
2019-04-27T04:46:36.758Z,63.90
2019-04-27T04:49:09.700Z,63.98
2019-04-27T04:51:42.648Z,64.04
2019-04-27T04:54:15.622Z,64.07
2019-04-27T04:56:49.393Z,64.21
2019-04-27T04:59:22.445Z,64.13
2019-04-27T05:01:55.325Z,64.27
2019-04-27T05:04:29.163Z,64.28
2019-04-27T05:07:02.141Z,63.91
2019-04-27T05:09:35.076Z,64.09
2019-04-27T05:12:08.920Z,64.38
2019-04-27T05:14:41.913Z,64.26
2019-04-27T05:17:14.797Z,64.24
2019-04-27T05:19:49.090Z,64.20
2019-04-27T05:22:22.268Z,64.09
2019-04-27T05:25:01.238Z,64.16
2019-04-27T05:27:34.357Z,64.36
2019-04-27T05:30:09.252Z,64.65
2019-04-27T05:32:42.261Z,65.41
2019-04-27T05:35:16.102Z,66.04
2019-04-27T05:37:49.247Z,66.69
2019-04-27T05:40:22.179Z,67.12
2019-04-27T05:42:56.192Z,67.31
2019-04-27T05:46:45.836Z,67.25
2019-04-27T05:49:23.286Z,67.54
2019-04-27T05:51:56.126Z,67.68
2019-04-27T05:54:29.466Z,67.80
2019-04-27T05:57:02.402Z,67.63
2019-04-27T05:59:35.200Z,67.62
2019-04-27T06:02:09.365Z,67.89
2019-04-27T06:04:42.447Z,67.89
2019-04-27T06:07:15.319Z,67.79
2019-04-27T06:09:49.262Z,67.89
2019-04-27T06:12:22.419Z,68.19
2019-04-27T06:14:55.324Z,68.37
2019-04-27T06:17:29.893Z,68.27
2019-04-27T06:20:02.713Z,68.59
2019-04-27T06:22:36.628Z,68.47
2019-04-27T06:25:11.696Z,68.67
2019-04-27T06:27:44.741Z,68.71
2019-04-27T06:30:19.290Z,69.14
2019-04-27T06:32:52.376Z,69.30
2019-04-27T06:35:25.267Z,69.40
2019-04-27T06:37:58.594Z,69.58
2019-04-27T06:40:31.614Z,69.40
2019-04-27T06:43:04.665Z,69.27
2019-04-27T06:45:38.755Z,69.17
2019-04-27T06:48:11.942Z,68.48
2019-04-27T06:50:45.186Z,67.96
2019-04-27T06:53:19.183Z,67.61
2019-04-27T06:55:52.463Z,67.40
2019-04-27T06:58:25.339Z,67.04
2019-04-27T07:00:59.562Z,66.77
2019-04-27T07:03:32.607Z,66.17
2019-04-27T07:06:05.746Z,65.80
2019-04-27T07:08:40.063Z,65.58
2019-04-27T07:11:13.213Z,65.61
2019-04-27T07:13:46.270Z,65.53
2019-04-27T07:16:19.637Z,65.97
2019-04-27T07:18:52.689Z,65.97
2019-04-27T07:21:25.680Z,66.30
2019-04-27T07:23:59.479Z,66.31
2019-04-27T07:26:32.731Z,66.84
2019-04-27T07:29:05.693Z,67.26
2019-04-27T07:31:40.231Z,66.83
2019-04-27T07:34:13.343Z,67.05
2019-04-27T07:36:46.661Z,67.03
2019-04-27T07:39:19.864Z,66.98
2019-04-27T07:41:52.774Z,66.97
2019-04-27T07:44:44.483Z,66.91
2019-04-27T07:47:22.606Z,66.74
2019-04-27T07:49:55.574Z,66.76
2019-04-27T07:52:28.746Z,66.93
2019-04-27T07:55:02.022Z,66.62
2019-04-27T07:57:35.042Z,67.07
2019-04-27T08:00:09.487Z,66.78
2019-04-27T08:02:42.525Z,66.18
2019-04-27T08:05:15.856Z,66.67
2019-04-27T08:07:49.207Z,66.73
2019-04-27T08:10:23.045Z,66.69
2019-04-27T08:12:55.928Z,66.63
2019-04-27T08:15:29.127Z,66.39
2019-04-27T08:18:02.204Z,66.59
2019-04-27T08:20:36.098Z,66.52
2019-04-27T08:23:09.629Z,66.34
2019-04-27T08:25:42.704Z,66.51
2019-04-27T08:28:34.636Z,66.36
2019-04-27T08:31:21.212Z,66.33
2019-04-27T08:33:54.173Z,66.44
2019-04-27T08:36:28.794Z,66.25
2019-04-27T08:39:01.864Z,65.94
2019-04-27T08:41:36.347Z,65.88
2019-04-27T08:44:11.065Z,65.59
2019-04-27T08:46:44.134Z,65.44
2019-04-27T08:49:18.507Z,65.57
2019-04-27T08:51:59.168Z,65.22
2019-04-27T08:54:26.196Z,65.29
2019-04-27T08:56:59.635Z,65.48
2019-04-27T08:59:33.833Z,65.59
2019-04-27T09:02:08.628Z,65.92
2019-04-27T09:04:41.595Z,65.98
2019-04-27T09:07:39.769Z,65.67
2019-04-27T09:10:35.006Z,65.66
2019-04-27T09:13:23.253Z,65.75
2019-04-27T09:16:15.094Z,65.95
2019-04-27T09:18:49.837Z,65.93
2019-04-27T09:21:23.092Z,66.11
2019-04-27T09:23:56.042Z,65.65
2019-04-27T09:26:29.175Z,66.04
2019-04-27T09:29:02.219Z,66.05
2019-04-27T09:31:35.136Z,66.18
2019-04-27T09:34:08.171Z,65.87
2019-04-27T09:36:41.204Z,65.89
2019-04-27T09:39:16.315Z,66.05
2019-04-27T09:41:49.521Z,65.88
2019-04-27T09:44:22.573Z,65.74
2019-04-27T09:46:56.069Z,65.74
2019-04-27T09:49:29.243Z,65.58
2019-04-27T09:52:02.312Z,65.65
2019-04-27T09:54:36.553Z,65.49
2019-04-27T09:57:09.577Z,65.40
2019-04-27T09:59:42.484Z,65.02
2019-04-27T10:02:16.531Z,65.23
2019-04-27T10:04:49.712Z,64.94
2019-04-27T10:07:22.748Z,65.16
2019-04-27T10:09:56.036Z,65.18
2019-04-27T10:12:29.107Z,65.39
2019-04-27T10:15:01.973Z,65.47
2019-04-27T10:17:36.734Z,65.95
2019-04-27T10:20:10.231Z,65.89
2019-04-27T10:22:43.855Z,65.38
2019-04-27T10:25:25.117Z,65.09
2019-04-27T10:27:59.221Z,64.50
2019-04-27T10:30:32.230Z,63.60
2019-04-27T10:33:05.968Z,63.30
2019-04-27T10:35:39.876Z,62.79
2019-04-27T10:38:12.968Z,62.76
2019-04-27T10:40:46.282Z,62.69
2019-04-27T10:43:19.220Z,62.52
2019-04-27T10:45:52.050Z,62.33
2019-04-27T10:48:26.519Z,62.06
2019-04-27T10:50:59.675Z,61.67
2019-04-27T10:53:32.563Z,61.68
2019-04-27T10:56:05.474Z,61.77
2019-04-27T10:58:38.382Z,61.92
2019-04-27T11:01:11.409Z,61.73
2019-04-27T11:04:06.913Z,61.35
2019-04-27T11:06:42.230Z,60.94
2019-04-27T11:09:16.351Z,60.11
2019-04-27T11:11:49.451Z,59.99
2019-04-27T11:14:22.333Z,59.77
2019-04-27T11:16:57.286Z,59.94
2019-04-27T11:19:30.976Z,59.73
2019-04-27T11:22:07.054Z,59.51
2019-04-27T11:24:38.473Z,59.50
2019-04-27T11:27:11.478Z,59.55
2019-04-27T11:29:46.072Z,59.51
2019-04-27T11:32:19.239Z,59.72
2019-04-27T11:35:26.083Z,60.14
2019-04-27T11:37:59.719Z,60.37
2019-04-27T11:40:33.855Z,60.21
2019-04-27T11:43:07.236Z,59.94
2019-04-27T11:45:40.196Z,60.27
2019-04-27T11:48:13.242Z,60.04
2019-04-27T11:50:46.097Z,60.16
2019-04-27T11:53:22.623Z,60.02
2019-04-27T11:55:53.620Z,59.58
2019-04-27T11:58:26.625Z,59.40
2019-04-27T12:00:59.456Z,59.60
2019-04-27T12:03:32.468Z,59.53
2019-04-27T12:06:05.665Z,59.29
2019-04-27T12:08:38.665Z,59.34
2019-04-27T12:11:11.621Z,59.60
2019-04-27T12:13:46.124Z,59.46
2019-04-27T12:16:19.171Z,59.47
2019-04-27T12:18:52.076Z,59.23
2019-04-27T12:21:24.976Z,59.27
2019-04-27T12:23:57.955Z,59.43
2019-04-27T12:26:47.486Z,59.40
2019-04-27T12:29:23.781Z,58.91
2019-04-27T12:31:56.600Z,57.96
2019-04-27T12:34:29.415Z,57.30
2019-04-27T12:37:02.512Z,57.17
2019-04-27T12:39:35.340Z,56.49
2019-04-27T12:42:08.330Z,56.38
2019-04-27T12:44:42.617Z,56.75
2019-04-27T12:47:16.369Z,55.74
2019-04-27T12:49:49.287Z,55.84
2019-04-27T12:52:23.266Z,56.28
2019-04-27T12:55:16.780Z,55.90
2019-04-27T12:58:10.196Z,55.42
2019-04-27T13:00:45.588Z,55.09
2019-04-27T13:03:18.493Z,54.46
2019-04-27T13:05:51.319Z,54.29
2019-04-27T13:08:26.054Z,53.97
2019-04-27T13:10:58.999Z,54.04
2019-04-27T13:13:31.904Z,54.04
2019-04-27T13:16:07.651Z,54.37
2019-04-27T13:18:40.621Z,53.98
2019-04-27T13:21:13.597Z,53.97
2019-04-27T13:23:46.477Z,53.44
2019-04-27T13:26:19.298Z,53.00
2019-04-27T13:28:53.114Z,52.52
2019-04-27T13:31:26.122Z,52.40
2019-04-27T13:33:59.264Z,52.74
2019-04-27T13:36:33.139Z,52.45
2019-04-27T13:39:08.650Z,52.35
2019-04-27T13:41:43.248Z,52.53
2019-04-27T13:44:17.369Z,52.36
2019-04-27T13:47:08.027Z,51.49
2019-04-27T13:49:48.805Z,51.13
2019-04-27T13:52:26.364Z,50.49
2019-04-27T13:55:00.193Z,50.79
2019-04-27T13:57:33.043Z,50.59
2019-04-27T14:00:06.565Z,50.53
2019-04-27T14:02:39.880Z,50.64
2019-04-27T14:05:13.085Z,51.19
2019-04-27T14:07:46.075Z,51.46
2019-04-27T14:10:20.386Z,51.23
2019-04-27T14:12:53.473Z,51.71
2019-04-27T14:15:28.784Z,51.98
2019-04-27T14:18:01.340Z,52.22
2019-04-27T14:20:34.389Z,52.22
2019-04-27T14:23:16.195Z,52.17
2019-04-27T14:25:49.033Z,52.41
2019-04-27T14:28:21.965Z,52.68
2019-04-27T14:30:54.918Z,52.99
2019-04-27T14:33:28.405Z,52.73
2019-04-27T14:36:01.752Z,53.05
2019-04-27T14:38:34.739Z,53.06
2019-04-27T14:41:09.075Z,52.45
2019-04-27T14:43:42.284Z,52.24
2019-04-27T14:46:15.202Z,52.19
2019-04-27T14:48:48.482Z,52.65
2019-04-27T14:51:21.306Z,51.88
2019-04-27T14:53:54.199Z,51.12
2019-04-27T14:56:28.220Z,51.53
2019-04-27T14:59:01.240Z,50.98
2019-04-27T15:01:34.173Z,50.45
2019-04-27T15:04:07.158Z,50.43
2019-04-27T15:06:40.154Z,50.62
2019-04-27T15:09:17.380Z,50.66
2019-04-27T15:11:49.279Z,50.99
2019-04-27T15:14:23.802Z,50.56
2019-04-27T15:16:56.922Z,50.33
2019-04-27T15:19:35.103Z,50.28
2019-04-27T15:22:12.677Z,49.98
2019-04-27T15:24:47.370Z,50.36
2019-04-27T15:27:21.706Z,50.16
2019-04-27T15:29:55.792Z,49.94
2019-04-27T15:32:56.522Z,51.21
2019-04-27T15:35:40.515Z,50.07
2019-04-27T15:38:15.524Z,50.46
2019-04-27T15:41:16.107Z,50.69
2019-04-27T15:43:49.090Z,50.73
2019-04-27T15:46:22.124Z,50.41
2019-04-27T15:48:55.029Z,50.33
2019-04-27T15:51:28.340Z,50.06
2019-04-27T15:54:02.117Z,50.49
2019-04-27T15:56:35.497Z,50.35
2019-04-27T15:59:09.794Z,49.54
2019-04-27T16:01:42.823Z,49.51
2019-04-27T16:04:15.653Z,50.22
2019-04-27T16:06:50.315Z,49.82
2019-04-27T16:09:25.561Z,50.12
2019-04-27T16:12:09.643Z,49.89
2019-04-27T16:14:36.474Z,49.79
2019-04-27T16:17:11.366Z,49.98
2019-04-27T16:19:46.667Z,49.88
2019-04-27T16:22:18.419Z,49.85
2019-04-27T16:24:53.499Z,49.94
2019-04-27T16:27:31.435Z,49.79
2019-04-27T16:30:09.722Z,50.21
2019-04-27T16:32:35.868Z,50.17
2019-04-27T16:35:13.692Z,50.61
2019-04-27T16:38:08.126Z,50.71
2019-04-27T16:40:41.719Z,50.72
2019-04-27T16:43:14.730Z,50.69
2019-04-27T16:45:48.532Z,50.65
2019-04-27T16:48:21.606Z,50.46
2019-04-27T16:50:55.231Z,50.70
2019-04-27T16:56:15.275Z,51.04
2019-04-27T16:58:50.502Z,51.57
2019-04-27T17:01:23.180Z,51.29
2019-04-27T17:03:56.638Z,51.73
2019-04-27T17:06:29.843Z,51.81
2019-04-27T17:09:06.782Z,52.10
2019-04-27T17:11:43.668Z,52.50
2019-04-27T17:12:41.339Z,50.76
2019-04-27T17:14:22.437Z,52.39
2019-04-27T17:17:12.065Z,52.16
2019-04-27T17:19:52.102Z,52.38
2019-04-27T17:22:25.034Z,52.48
2019-04-27T17:24:59.005Z,52.48
2019-04-27T17:27:38.417Z,52.30
2019-04-27T17:30:11.521Z,52.76
2019-04-27T17:32:53.803Z,52.79
2019-04-27T17:35:28.461Z,53.09
2019-04-27T17:38:03.669Z,52.90
2019-04-27T17:40:36.042Z,53.11
2019-04-27T17:43:10.518Z,53.31
2019-04-27T17:45:43.610Z,53.30
2019-04-27T17:48:18.336Z,53.27
2019-04-27T17:50:51.403Z,53.58
2019-04-27T17:53:25.202Z,54.07
2019-04-27T17:56:02.948Z,54.50
2019-04-27T17:58:35.324Z,55.61
2019-04-27T18:01:14.016Z,56.22
2019-04-27T18:03:45.068Z,56.73
2019-04-27T18:06:20.519Z,57.07
2019-04-27T18:08:55.005Z,57.66
2019-04-27T18:11:28.729Z,57.82
2019-04-27T18:14:01.966Z,57.47
2019-04-27T18:16:34.877Z,58.16
2019-04-27T18:19:13.774Z,58.33
2019-04-27T18:22:03.641Z,58.53
2019-04-27T18:24:50.792Z,58.44
2019-04-27T18:27:41.459Z,58.83
2019-04-27T18:30:41.873Z,59.52
2019-04-27T18:33:12.766Z,60.24
2019-04-27T18:35:45.734Z,60.80
2019-04-27T18:38:18.705Z,60.92
2019-04-27T18:40:51.630Z,60.12
2019-04-27T18:43:24.750Z,60.22
2019-04-27T18:45:58.728Z,60.38
2019-04-27T18:48:58.344Z,60.75
2019-04-27T18:51:57.861Z,61.01
2019-04-27T18:54:33.039Z,60.94
2019-04-27T18:57:05.137Z,61.38
2019-04-27T18:59:38.149Z,61.47
2019-04-27T19:02:11.217Z,61.47
2019-04-27T19:04:44.103Z,61.43
2019-04-27T19:07:17.088Z,62.22
2019-04-27T19:09:49.995Z,62.71
2019-04-27T19:12:22.943Z,63.09
2019-04-27T19:14:55.830Z,63.08
2019-04-27T19:17:28.785Z,63.38
2019-04-27T19:20:01.916Z,63.36
2019-04-27T19:22:35.079Z,63.66
2019-04-27T19:25:10.274Z,63.81
2019-04-27T19:27:59.756Z,64.13
2019-04-27T19:30:36.635Z,64.58
2019-04-27T19:33:09.556Z,64.88
2019-04-27T19:35:42.441Z,65.30
2019-04-27T19:38:15.407Z,64.89
2019-04-27T19:40:48.456Z,65.31
2019-04-27T19:43:21.408Z,65.07
2019-04-27T19:45:54.555Z,65.22
2019-04-27T19:48:28.641Z,65.30
2019-04-27T19:51:02.089Z,65.93
2019-04-27T19:53:35.093Z,65.93
2019-04-27T19:56:07.999Z,65.96
2019-04-27T19:58:45.502Z,65.97
2019-04-27T20:01:35.575Z,66.13
2019-04-27T20:04:23.442Z,66.25
2019-04-27T20:06:56.350Z,66.57
2019-04-27T20:09:42.896Z,66.37
2019-04-27T20:12:15.888Z,65.72
2019-04-27T20:14:57.709Z,66.30
2019-04-27T20:17:32.409Z,66.53
2019-04-27T20:20:06.776Z,67.13
2019-04-27T20:22:39.836Z,68.50
2019-04-27T20:25:16.351Z,68.76
2019-04-27T20:27:51.693Z,68.66
2019-04-27T20:30:23.933Z,69.42
2019-04-27T20:32:56.859Z,69.05
2019-04-27T20:35:29.931Z,69.50
2019-04-27T20:38:02.823Z,69.77
2019-04-27T20:40:35.950Z,69.76
2019-04-27T20:43:09.029Z,69.92
2019-04-27T20:45:42.066Z,70.30
2019-04-27T20:48:15.083Z,70.41
2019-04-27T20:50:48.028Z,70.46
2019-04-27T20:53:23.977Z,70.29
2019-04-27T20:55:56.928Z,70.48
2019-04-27T20:58:31.137Z,70.67
2019-04-27T21:01:04.372Z,70.59
2019-04-27T21:03:42.206Z,70.81
2019-04-27T21:06:29.636Z,70.51
2019-04-27T21:09:03.051Z,70.56
2019-04-27T21:11:48.010Z,70.44
2019-04-27T21:14:21.780Z,70.40
2019-04-27T21:16:54.928Z,70.89
2019-04-27T21:19:27.835Z,71.13
2019-04-27T21:22:01.333Z,71.46
2019-04-27T21:24:34.364Z,71.40
2019-04-27T21:27:07.285Z,71.31
2019-04-27T21:29:41.972Z,71.05
2019-04-27T21:32:14.819Z,70.89
2019-04-27T21:34:47.823Z,70.99
2019-04-27T21:37:20.720Z,70.74
2019-04-27T21:40:15.596Z,70.54
2019-04-27T21:42:50.945Z,70.59
2019-04-27T21:45:24.764Z,70.68
2019-04-27T21:47:57.613Z,70.60
2019-04-27T21:50:31.386Z,70.48
2019-04-27T21:53:11.035Z,70.09
2019-04-27T21:55:43.962Z,69.80
2019-04-27T21:58:28.312Z,69.63
2019-04-27T22:01:14.651Z,69.14
2019-04-27T22:03:50.651Z,69.19
2019-04-27T22:06:23.462Z,69.07
2019-04-27T22:08:57.346Z,68.96
2019-04-27T22:11:31.944Z,68.85
2019-04-27T22:14:06.140Z,69.03
2019-04-27T22:16:39.137Z,69.22
2019-04-27T22:19:12.198Z,69.03
2019-04-27T22:21:45.088Z,69.50
2019-04-27T22:24:39.211Z,69.52
2019-04-27T22:27:12.431Z,69.16
2019-04-27T22:29:45.391Z,69.16
2019-04-27T22:32:18.205Z,69.06
2019-04-27T22:34:51.069Z,69.12
2019-04-27T22:37:23.966Z,69.18
2019-04-27T22:40:24.953Z,69.47
2019-04-27T22:43:19.851Z,69.71
2019-04-27T22:45:52.852Z,69.60
2019-04-27T22:48:25.686Z,69.39
2019-04-27T22:50:58.563Z,69.88
2019-04-27T22:53:32.455Z,69.70
2019-04-27T22:56:21.936Z,70.16
2019-04-27T22:59:11.457Z,70.19
2019-04-27T23:02:11.404Z,70.04
2019-04-27T23:04:48.754Z,70.22
2019-04-27T23:07:21.714Z,69.72
2019-04-27T23:09:54.732Z,69.86
2019-04-27T23:12:27.682Z,70.25
2019-04-27T23:15:00.576Z,70.38
2019-04-27T23:17:52.526Z,70.27
2019-04-27T23:20:25.461Z,70.04
2019-04-27T23:22:58.386Z,69.74
2019-04-27T23:25:31.420Z,69.46
2019-04-27T23:28:04.328Z,70.21
2019-04-27T23:31:02.551Z,70.33
2019-04-27T23:33:36.571Z,70.16
2019-04-27T23:36:11.402Z,70.54
2019-04-27T23:38:44.505Z,70.71
2019-04-27T23:41:17.398Z,71.04
2019-04-27T23:43:50.374Z,71.34
2019-04-27T23:46:23.229Z,71.14
2019-04-27T23:48:56.085Z,70.94
2019-04-27T23:51:41.276Z,70.82
2019-04-27T23:54:14.129Z,70.22
2019-04-27T23:56:47.013Z,69.68
2019-04-27T23:59:25.165Z,69.71
